BIENTÔT MET'MAP
version 2.0 !

Prévue avant fin octobre,
la nouvelle version sera
plus belle, plus complète
et hébergée sur un serveur
3 fois plus puissant...
et toujours gratuite !


Pas compatible ?
Essayez la version Mobile !

SE CONNECTER : | S'inscrire | Disclaimer | Découvrir Orbifly |
Code OACI :

TAF - LIPE Bologna Guglielmo Marconi - 29 May 2020 10:39 UTC
Data Sources :     NOAA   


- Altitude de l'aérodrome : 123 ft
- Code IATA : BLQ
- Pas de NOTAMs connus.


LIPE - Bologna Guglielmo Marconi

Dernier METAR connu : 2015/08/11 07:50 LIPE 110750Z 31010KT 280V340 CAVOK 25/18 Q1013
TAF TAF LIPE
Valide du 29 à 06h jusqu'au 30 à 06h UTC


290500Z 2906/3006 10008KT 9999 SCT040
TEMPO 2906/2908 4000 TSRA

Source NOAA


MET'MAP, la Météo Aéronautique d'un coup d'oeil ! - Copyright ORBIFLY Décembre 2007

Développement & Programmation : Alexandra Zaïnal
Co-Développement : Marc-Olivier Méhu
Soutien technique & logistique : Manuel Goepfert
Conception & Financement : Baudouin d'Aumeries